Time;durP1;ratioP1;P1;durP2;ratioP2;P2;SDS_P1;SDS_P2;PMS_P1;PMS_P2;Temp;Humidity;BMP_temperature;BMP_pressure;BME280_temperature;BME280_humidity;BME280_pressure;Samples;Min_cycle;Max_cycle;Signal;HPM_P1;HPM_P2
2023/01/12 00:01:29;;;;;;;5.70;0.77;;;8.00;99.90;;;;;;4974847;28;20051;-73
2023/01/12 00:03:56;;;;;;;5.50;1.58;;;8.20;99.90;;;;;;4974885;28;20050;-73
2023/01/12 00:06:22;;;;;;;7.13;1.23;;;8.10;99.90;;;;;;4975360;28;20042;-72
2023/01/12 00:08:50;;;;;;;5.38;1.00;;;8.00;99.90;;;;;;4975994;28;20055;-73
2023/01/12 00:11:17;;;;;;;6.85;1.35;;;8.10;99.90;;;;;;4974822;28;20093;-72
2023/01/12 00:13:43;;;;;;;8.27;1.85;;;8.30;99.90;;;;;;4975597;28;20047;-72
2023/01/12 00:16:34;;;;;;;9.98;1.10;;;8.10;99.90;;;;;;4974777;28;20074;-73
2023/01/12 00:19:11;;;;;;;10.23;1.25;;;8.00;99.90;;;;;;4974835;28;20082;-73
2023/01/12 00:22:01;;;;;;;6.80;1.20;;;8.10;99.90;;;;;;4973806;28;20477;-73
2023/01/12 00:24:38;;;;;;;7.88;1.13;;;8.00;99.90;;;;;;4974748;28;20051;-73
2023/01/12 00:27:06;;;;;;;5.30;0.95;;;8.00;99.90;;;;;;4974753;28;20145;-72
2023/01/12 00:29:32;;;;;;;5.15;1.10;;;6.90;99.90;;;;;;4974728;28;20086;-74
2023/01/12 00:31:59;;;;;;;7.53;1.45;;;8.00;99.90;;;;;;4974695;28;20524;-73
2023/01/12 00:34:25;;;;;;;9.30;1.40;;;7.90;99.90;;;;;;4973411;28;20050;-77
2023/01/12 00:36:52;;;;;;;8.55;1.10;;;7.90;99.90;;;;;;4974552;28;20146;-73
2023/01/12 00:39:17;;;;;;;7.57;0.95;;;7.90;99.90;;;;;;4974606;28;20050;-72
2023/01/12 00:47:13;;;;;;;5.70;1.13;;;8.00;99.90;;;;;;4975529;28;20393;-72
2023/01/12 00:49:40;;;;;;;11.07;1.15;;;8.00;99.90;;;;;;4978321;28;20050;-72
2023/01/12 00:52:08;;;;;;;9.38;1.35;;;8.10;99.90;;;;;;4978808;28;20400;-74
2023/01/12 00:54:34;;;;;;;10.93;1.63;;;8.00;99.90;;;;;;4978150;28;20042;-73
2023/01/12 00:57:01;;;;;;;7.13;1.40;;;7.90;99.90;;;;;;4978205;28;20497;-74
2023/01/12 00:59:27;;;;;;;11.93;1.52;;;8.00;99.90;;;;;;4978900;28;20057;-73
2023/01/12 01:01:53;;;;;;;6.88;1.00;;;8.10;99.90;;;;;;4978648;28;20053;-72
2023/01/12 01:04:19;;;;;;;9.75;1.48;;;8.00;99.90;;;;;;4976933;28;20424;-73
2023/01/12 01:06:45;;;;;;;7.05;1.40;;;8.20;99.90;;;;;;4976822;28;20046;-73
2023/01/12 01:09:12;;;;;;;7.97;1.27;;;8.00;99.90;;;;;;4978075;28;20090;-72
2023/01/12 01:11:38;;;;;;;8.65;1.48;;;8.10;99.90;;;;;;4978165;28;20468;-72
2023/01/12 01:14:04;;;;;;;8.98;1.25;;;8.20;99.90;;;;;;4978433;28;20443;-73
2023/01/12 01:16:31;;;;;;;9.07;1.63;;;8.00;99.90;;;;;;4977839;28;20138;-74
2023/01/12 01:18:58;;;;;;;7.43;1.65;;;8.00;99.90;;;;;;4978588;28;20362;-74
2023/01/12 01:21:24;;;;;;;8.80;1.63;;;8.20;99.90;;;;;;4978281;28;20117;-77
2023/01/12 01:23:50;;;;;;;8.93;1.30;;;8.10;99.90;;;;;;4978243;28;20046;-73
2023/01/12 01:26:19;;;;;;;6.57;1.02;;;8.10;99.90;;;;;;4976742;28;20058;-74
2023/01/12 01:28:45;;;;;;;8.60;1.17;;;8.00;99.90;;;;;;4977881;28;20501;-76
2023/01/12 01:31:22;;;;;;;9.00;0.95;;;8.00;99.90;;;;;;4978107;28;20086;-73
2023/01/12 01:33:48;;;;;;;6.82;0.93;;;7.90;99.90;;;;;;4977428;28;20047;-73
2023/01/12 01:36:14;;;;;;;5.65;1.48;;;8.00;99.90;;;;;;4977868;28;20046;-73
2023/01/12 01:38:43;;;;;;;9.75;1.23;;;7.80;99.90;;;;;;4977975;28;20181;-73
2023/01/12 01:41:21;;;;;;;7.22;1.35;;;7.80;99.90;;;;;;4977396;28;20085;-76
2023/01/12 01:43:57;;;;;;;10.45;1.08;;;7.80;99.90;;;;;;4977403;28;20050;-74
2023/01/12 01:46:30;;;;;;;11.50;1.35;;;7.80;99.90;;;;;;4977067;28;20524;-75
2023/01/12 01:49:02;;;;;;;9.10;1.38;;;7.80;99.90;;;;;;4977868;28;20055;-77
2023/01/12 01:51:27;;;;;;;11.32;2.38;;;7.80;99.90;;;;;;4977288;28;20050;-71
2023/01/12 01:53:53;;;;;;;8.73;1.58;;;8.00;99.90;;;;;;4977692;28;20047;-72
2023/01/12 01:56:26;;;;;;;12.05;2.10;;;7.80;99.90;;;;;;4977943;28;20043;-73
2023/01/12 01:58:55;;;;;;;;;;;7.90;99.90;;;;;;4977867;28;20126;-72
2023/01/12 02:01:21;;;;;;;9.77;1.65;;;7.80;99.90;;;;;;4976762;28;19922;-72
2023/01/12 02:03:47;;;;;;;8.88;1.38;;;7.90;99.90;;;;;;4976056;28;20054;-72
2023/01/12 02:06:14;;;;;;;10.77;1.70;;;8.00;99.90;;;;;;4976884;28;20101;-74
2023/01/12 02:08:59;;;;;;;12.50;1.70;;;7.90;99.90;;;;;;4977097;28;20485;-74
2023/01/12 02:17:24;;;;;;;8.77;1.20;;;8.00;99.90;;;;;;4976786;28;20054;-73
2023/01/12 02:20:14;;;;;;;11.52;1.13;;;8.20;99.90;;;;;;4974810;28;20055;-74
2023/01/12 02:23:01;;;;;;;7.82;1.27;;;8.10;99.90;;;;;;4976350;28;20555;-74
2023/01/12 02:25:29;;;;;;;7.25;0.90;;;7.90;99.90;;;;;;4975586;28;20051;-74
2023/01/12 02:28:32;;;;;;;6.93;1.25;;;8.00;99.90;;;;;;4976438;28;20546;-73
2023/01/12 02:31:31;;;;;;;13.82;1.67;;;8.00;99.90;;;;;;4976507;28;20051;-75
2023/01/12 02:34:14;;;;;;;10.80;1.65;;;7.90;99.90;;;;;;4975299;28;20061;-74
2023/01/12 02:36:40;;;;;;;14.85;1.48;;;8.00;99.90;;;;;;4976356;28;20086;-74
2023/01/12 02:39:28;;;;;;;7.40;1.77;;;7.90;99.90;;;;;;4975695;28;20148;-74
2023/01/12 02:45:08;;;;;;;9.43;1.75;;;8.00;99.90;;;;;;4976468;28;20144;-75
2023/01/12 02:47:49;;;;;;;12.20;2.00;;;8.00;99.90;;;;;;4973089;28;20138;-74
2023/01/12 02:50:26;;;;;;;10.40;2.35;;;8.00;99.90;;;;;;4976476;28;20396;-74
2023/01/12 02:52:58;;;;;;;8.73;1.77;;;8.00;99.90;;;;;;4976194;28;20051;-74
2023/01/12 02:55:26;;;;;;;8.43;1.60;;;8.10;99.90;;;;;;4976593;28;20393;-74
2023/01/12 02:57:54;;;;;;;8.95;2.10;;;8.10;99.90;;;;;;4975692;28;20504;-74
2023/01/12 03:00:20;;;;;;;9.55;1.73;;;8.10;99.90;;;;;;4974542;28;20432;-75
2023/01/12 03:02:46;;;;;;;6.13;1.70;;;8.10;99.90;;;;;;4974733;28;20408;-75
2023/01/12 03:05:12;;;;;;;9.60;1.40;;;8.10;99.90;;;;;;4976140;28;20058;-74
2023/01/12 03:07:47;;;;;;;5.05;1.40;;;8.10;99.90;;;;;;4974277;28;20059;-76
2023/01/12 03:10:25;;;;;;;11.05;1.77;;;8.10;99.90;;;;;;4975763;28;20049;-75
2023/01/12 03:12:53;;;;;;;11.73;1.73;;;8.20;99.90;;;;;;4975401;28;20046;-74
2023/01/12 03:15:23;;;;;;;11.27;1.60;;;8.10;99.90;;;;;;4975646;28;20141;-73
2023/01/12 03:17:57;;;;;;;7.70;1.60;;;8.10;99.90;;;;;;4974618;28;20055;-73
2023/01/12 03:20:25;;;;;;;8.05;1.80;;;8.20;99.90;;;;;;4975601;28;20050;-74
2023/01/12 03:22:56;;;;;;;11.45;1.90;;;8.20;99.90;;;;;;4975569;28;20146;-74
2023/01/12 03:25:24;;;;;;;8.60;1.80;;;8.20;99.90;;;;;;4974877;28;20101;-74
2023/01/12 03:27:54;;;;;;;10.90;1.95;;;8.10;99.90;;;;;;4976255;28;20133;-74
2023/01/12 03:30:41;;;;;;;10.93;2.20;;;8.10;99.90;;;;;;4974371;28;20055;-75
2023/01/12 03:33:08;;;;;;;13.38;2.10;;;8.10;99.90;;;;;;4975320;28;20452;-74
2023/01/12 03:35:53;;;;;;;11.90;1.95;;;8.30;99.90;;;;;;4975170;28;20038;-74
2023/01/12 03:38:33;;;;;;;13.00;2.03;;;8.20;99.90;;;;;;4975365;28;20059;-74
2023/01/12 03:41:09;;;;;;;10.60;2.22;;;8.20;99.90;;;;;;4975341;28;20046;-75
2023/01/12 03:43:53;;;;;;;11.73;1.70;;;8.40;99.90;;;;;;4974635;28;20090;-75
2023/01/12 03:46:32;;;;;;;13.90;2.35;;;8.20;99.90;;;;;;4975221;28;20035;-74
2023/01/12 03:49:05;;;;;;;8.43;1.60;;;8.20;99.90;;;;;;4974031;28;20133;-74
2023/01/12 03:51:38;;;;;;;6.55;2.03;;;8.20;99.90;;;;;;4975222;28;20054;-74
2023/01/12 03:54:07;;;;;;;10.43;1.35;;;8.30;99.90;;;;;;4974471;28;20054;-74
2023/01/12 03:56:35;;;;;;;6.88;1.55;;;8.20;99.90;;;;;;4973762;28;20481;-75
2023/01/12 03:59:03;;;;;;;10.82;1.70;;;8.10;99.90;;;;;;4975023;28;20105;-73
2023/01/12 04:01:29;;;;;;;12.35;1.70;;;8.20;99.90;;;;;;4975008;28;20455;-73
2023/01/12 04:03:54;;;;;;;6.40;1.67;;;8.20;99.90;;;;;;4974928;28;20109;-74
2023/01/12 04:06:21;;;;;;;8.52;2.47;;;8.20;99.90;;;;;;4974177;28;20046;-74
2023/01/12 04:08:47;;;;;;;10.98;2.10;;;8.10;99.90;;;;;;4975582;28;20102;-74
2023/01/12 04:13:57;;;;;;;8.98;1.83;;;8.20;99.90;;;;;;4974894;28;20507;-73
2023/01/12 04:16:22;;;;;;;6.45;1.38;;;8.20;99.90;;;;;;4973558;28;20086;-74
2023/01/12 04:18:48;;;;;;;5.97;1.30;;;8.20;99.90;;;;;;4975598;28;20433;-74
2023/01/12 04:23:59;;;;;;;8.48;1.27;;;8.20;99.90;;;;;;4977414;28;20400;-74
2023/01/12 04:26:25;;;;;;;6.43;1.63;;;8.20;99.90;;;;;;4978813;28;20082;-73
2023/01/12 04:28:50;;;;;;;10.07;1.65;;;8.20;99.90;;;;;;4979524;28;20105;-73
2023/01/12 04:31:16;;;;;;;8.80;1.40;;;8.30;99.90;;;;;;4978662;28;20105;-73
2023/01/12 04:33:42;;;;;;;5.53;1.15;;;8.30;99.90;;;;;;4978613;28;20489;-72
2023/01/12 04:36:10;;;;;;;5.60;1.10;;;8.20;99.90;;;;;;4979006;28;20436;-72
2023/01/12 04:38:37;;;;;;;6.68;1.27;;;8.20;99.90;;;;;;4978889;28;20082;-72
2023/01/12 04:41:03;;;;;;;8.45;1.92;;;8.30;99.90;;;;;;4977117;28;20058;-72
2023/01/12 04:43:29;;;;;;;4.43;1.17;;;8.20;99.90;;;;;;4979018;28;20047;-73
2023/01/12 04:45:54;;;;;;;5.00;1.40;;;8.30;99.90;;;;;;4979533;28;20121;-72
2023/01/12 04:48:20;;;;;;;6.03;1.90;;;8.30;99.90;;;;;;4977427;28;20051;-72
2023/01/12 04:50:48;;;;;;;6.07;1.25;;;8.20;99.90;;;;;;4978900;28;20134;-72
2023/01/12 04:53:14;;;;;;;7.72;2.65;;;8.20;99.90;;;;;;4978378;28;20110;-72
2023/01/12 04:55:42;;;;;;;8.10;2.13;;;8.30;99.90;;;;;;4978180;28;20050;-72
2023/01/12 04:58:08;;;;;;;4.30;1.60;;;8.40;99.90;;;;;;4978263;28;20073;-73
2023/01/12 05:00:35;;;;;;;7.72;1.73;;;8.30;99.90;;;;;;4978155;28;20133;-72
2023/01/12 05:03:02;;;;;;;6.72;1.30;;;8.10;99.90;;;;;;4978139;28;20059;-73
2023/01/12 05:05:29;;;;;;;7.45;1.35;;;8.20;99.90;;;;;;4977989;28;20130;-73
2023/01/12 05:10:42;;;;;;;4.50;0.80;;;8.40;99.90;;;;;;4978270;28;20495;-72
2023/01/12 05:13:08;;;;;;;4.88;0.75;;;8.50;99.90;;;;;;4978256;28;20130;-72
2023/01/12 05:15:34;;;;;;;2.75;0.75;;;8.20;99.90;;;;;;4977901;28;20047;-74
2023/01/12 05:17:59;;;;;;;1.23;0.85;;;8.20;99.90;;;;;;4977810;28;20134;-74
2023/01/12 05:20:25;;;;;;;2.88;0.60;;;8.20;99.90;;;;;;4977843;28;20099;-73
2023/01/12 05:22:51;;;;;;;4.10;0.73;;;8.20;99.90;;;;;;4977798;28;20050;-73
2023/01/12 05:25:17;;;;;;;6.32;0.98;;;8.20;99.90;;;;;;4978556;28;20082;-73
2023/01/12 05:27:43;;;;;;;4.13;0.82;;;8.10;99.90;;;;;;4977670;28;20047;-74
2023/01/12 05:30:09;;;;;;;2.47;0.90;;;8.20;99.90;;;;;;4976543;28;20043;-74
2023/01/12 05:32:40;;;;;;;5.30;1.00;;;8.20;99.90;;;;;;4976531;28;20109;-74
2023/01/12 05:35:07;;;;;;;2.38;0.80;;;8.20;99.90;;;;;;4977271;28;20050;-74
2023/01/12 05:37:33;;;;;;;4.53;0.90;;;8.10;99.90;;;;;;4977447;28;20053;-75
2023/01/12 05:39:58;;;;;;;3.67;0.95;;;8.10;99.90;;;;;;4976984;28;20379;-74
2023/01/12 05:45:10;;;;;;;3.35;0.60;;;8.20;99.90;;;;;;4977976;28;20050;-75
2023/01/12 05:47:36;;;;;;;2.72;0.68;;;8.10;99.90;;;;;;4977347;28;20046;-74
2023/01/12 05:50:03;;;;;;;2.00;0.63;;;8.10;99.90;;;;;;4977283;28;20058;-74
2023/01/12 05:52:29;;;;;;;2.00;0.68;;;8.10;99.90;;;;;;4977750;28;20109;-74
2023/01/12 05:54:54;;;;;;;4.70;1.00;;;8.10;99.90;;;;;;4977195;28;20043;-74
2023/01/12 05:57:20;;;;;;;3.78;0.70;;;8.10;99.90;;;;;;4977175;28;20058;-74
2023/01/12 05:59:46;;;;;;;4.07;1.00;;;8.00;99.90;;;;;;4977103;28;20504;-73
2023/01/12 06:02:15;;;;;;;1.98;0.40;;;8.10;99.90;;;;;;4977336;28;20047;-73
2023/01/12 06:04:42;;;;;;;2.90;0.60;;;8.00;99.90;;;;;;4977051;28;20400;-73
2023/01/12 06:07:13;;;;;;;1.00;0.40;;;8.10;99.90;;;;;;4959343;28;20046;-73
2023/01/12 06:09:39;;;;;;;1.52;0.50;;;8.10;99.90;;;;;;4977590;28;20101;-73
2023/01/12 06:14:50;;;;;;;2.45;0.68;;;8.00;99.90;;;;;;4976882;28;20480;-73
2023/01/12 06:17:16;;;;;;;1.45;0.43;;;7.90;99.90;;;;;;4975994;28;20055;-73
2023/01/12 06:19:41;;;;;;;3.13;0.50;;;8.00;99.90;;;;;;4977255;28;20046;-73
2023/01/12 06:22:07;;;;;;;2.83;0.50;;;8.00;99.90;;;;;;4976056;28;20053;-74
2023/01/12 06:24:33;;;;;;;1.50;0.50;;;8.00;99.90;;;;;;4976613;28;20090;-75
2023/01/12 06:26:59;;;;;;;3.35;0.50;;;8.00;99.90;;;;;;4976503;28;20093;-74
2023/01/12 06:29:25;;;;;;;2.53;0.43;;;8.10;99.90;;;;;;4975598;28;20461;-73
2023/01/12 06:31:51;;;;;;;0.80;0.47;;;8.00;99.90;;;;;;4959536;28;20051;-78
2023/01/12 06:34:16;;;;;;;1.98;0.45;;;8.10;99.90;;;;;;4976781;28;20050;-75
2023/01/12 06:36:42;;;;;;;1.40;0.63;;;8.20;99.90;;;;;;4976280;28;20477;-75
2023/01/12 06:39:08;;;;;;;1.85;0.35;;;8.00;99.90;;;;;;4976731;28;20058;-74
2023/01/12 06:44:18;;;;;;;1.02;0.30;;;8.00;99.90;;;;;;4976898;28;20086;-73
2023/01/12 06:46:45;;;;;;;2.33;0.30;;;8.10;99.90;;;;;;4976083;28;20077;-74
2023/01/12 06:49:10;;;;;;;3.15;0.43;;;8.10;99.90;;;;;;4975259;28;20511;-74
2023/01/12 06:51:36;;;;;;;0.80;0.30;;;8.10;99.90;;;;;;4976777;28;20086;-75
2023/01/12 06:54:02;;;;;;;1.75;0.40;;;8.20;99.90;;;;;;4976025;28;20421;-76
2023/01/12 06:56:28;;;;;;;1.88;0.32;;;8.10;99.90;;;;;;4976054;28;20046;-75
2023/01/12 06:58:53;;;;;;;0.55;0.30;;;8.20;99.90;;;;;;4975457;28;20051;-74
2023/01/12 07:01:19;;;;;;;2.55;0.35;;;8.30;99.90;;;;;;4975426;28;20070;-74
2023/01/12 07:03:45;;;;;;;1.77;0.30;;;8.20;99.90;;;;;;4975008;28;20133;-75
2023/01/12 07:06:10;;;;;;;0.55;0.30;;;8.20;99.90;;;;;;4975836;28;20053;-76
2023/01/12 07:08:36;;;;;;;0.55;0.40;;;8.20;99.90;;;;;;4958489;28;20519;-74
2023/01/12 07:11:03;;;;;;;1.40;0.30;;;8.30;99.90;;;;;;4975840;28;20086;-76
2023/01/12 07:13:30;;;;;;;1.90;0.30;;;8.30;99.90;;;;;;4975387;28;20189;-76
2023/01/12 07:16:00;;;;;;;0.50;0.20;;;8.50;99.90;;;;;;4976485;28;20154;-75
2023/01/12 07:18:27;;;;;;;0.88;0.20;;;8.50;99.90;;;;;;4974987;28;20058;-74
2023/01/12 07:20:53;;;;;;;0.98;0.20;;;8.40;99.90;;;;;;4975675;28;20050;-75
2023/01/12 07:23:19;;;;;;;0.75;0.30;;;8.50;99.90;;;;;;4975580;28;20053;-76
2023/01/12 07:25:45;;;;;;;0.30;0.20;;;8.50;99.90;;;;;;4958191;28;20050;-73
2023/01/12 07:28:11;;;;;;;0.40;0.20;;;8.50;99.90;;;;;;4974635;28;20053;-76
2023/01/12 07:30:36;;;;;;;1.00;0.20;;;8.60;99.90;;;;;;4974405;28;20615;-80
2023/01/12 07:33:13;;;;;;;0.40;0.20;;;8.60;99.90;;;;;;4974487;28;20043;-79
2023/01/12 07:35:40;;;;;;;0.90;0.20;;;8.60;99.90;;;;;;4981219;28;20047;-86
2023/01/12 07:38:07;;;;;;;0.85;0.20;;;8.60;99.90;;;;;;4974401;28;20066;-79
2023/01/12 07:40:32;;;;;;;0.73;0.20;;;8.60;99.90;;;;;;4979251;28;20054;-78
2023/01/12 07:43:03;;;;;;;0.38;0.20;;;8.70;99.90;;;;;;4975264;28;20043;-79
2023/01/12 07:45:29;;;;;;;0.38;0.20;;;8.90;99.90;;;;;;4975220;28;20039;-76
2023/01/12 07:47:55;;;;;;;0.30;0.20;;;8.60;99.90;;;;;;4975770;28;20047;-86
2023/01/12 07:50:22;;;;;;;0.50;0.20;;;8.70;99.90;;;;;;4973984;28;20053;-82
2023/01/12 07:52:49;;;;;;;0.45;0.20;;;8.70;99.90;;;;;;4975139;28;20109;-81
2023/01/12 07:55:15;;;;;;;0.65;0.20;;;8.70;99.90;;;;;;4975045;28;20078;-75
2023/01/12 07:57:59;;;;;;;1.85;0.30;;;8.70;99.90;;;;;;4974468;28;20051;-79
2023/01/12 08:00:26;;;;;;;0.50;0.30;;;8.80;99.90;;;;;;4975023;28;20042;-79
2023/01/12 08:02:53;;;;;;;0.65;0.20;;;8.80;99.90;;;;;;4975016;28;20047;-80
2023/01/12 08:05:20;;;;;;;0.95;0.20;;;8.90;99.90;;;;;;4973894;28;20046;-75
2023/01/12 08:07:46;;;;;;;0.40;0.15;;;8.80;99.90;;;;;;4973372;28;20062;-76
2023/01/12 08:10:14;;;;;;;0.98;0.20;;;8.90;99.90;;;;;;4974804;28;20062;-78
2023/01/12 08:12:40;;;;;;;1.40;0.30;;;8.80;99.90;;;;;;4974579;28;20059;-75
2023/01/12 08:15:07;;;;;;;1.95;0.30;;;8.80;99.90;;;;;;4973429;28;20139;-73
2023/01/12 08:17:39;;;;;;;1.35;0.50;;;8.80;99.90;;;;;;4974760;28;20051;-74
2023/01/12 08:20:13;;;;;;;0.95;0.40;;;8.90;99.90;;;;;;4975329;28;20058;-73
2023/01/12 08:22:42;;;;;;;1.77;0.40;;;8.90;99.90;;;;;;4974806;28;20047;-74
2023/01/12 08:25:13;;;;;;;1.33;0.40;;;8.90;99.90;;;;;;4974720;28;20194;-73
2023/01/12 08:27:44;;;;;;;2.85;0.35;;;8.90;99.90;;;;;;4974714;28;20074;-74
2023/01/12 08:30:14;;;;;;;1.30;0.38;;;9.00;99.90;;;;;;4975161;28;20050;-74
2023/01/12 08:32:40;;;;;;;3.20;0.50;;;9.00;99.90;;;;;;4975457;28;20107;-73
2023/01/12 08:35:07;;;;;;;3.38;0.70;;;9.20;99.90;;;;;;4974564;28;20047;-72
2023/01/12 08:37:33;;;;;;;6.13;1.05;;;9.10;99.90;;;;;;4974459;28;20051;-73
2023/01/12 08:40:00;;;;;;;7.13;1.60;;;9.10;99.90;;;;;;4974486;28;20405;-75
2023/01/12 08:42:26;;;;;;;4.65;0.93;;;9.20;99.90;;;;;;4974505;28;20050;-72
2023/01/12 08:44:55;;;;;;;9.82;1.40;;;9.30;99.90;;;;;;4973641;28;20114;-74
2023/01/12 08:47:26;;;;;;;10.68;1.73;;;9.40;99.90;;;;;;4974529;28;20405;-74
2023/01/12 08:49:52;;;;;;;11.52;1.63;;;9.40;99.90;;;;;;4975144;28;20055;-75
2023/01/12 08:52:19;;;;;;;39.65;10.30;;;9.50;99.90;;;;;;4973454;28;20046;-79
2023/01/12 08:54:45;;;;;;;10.45;1.70;;;9.60;99.90;;;;;;4974426;28;20477;-74
2023/01/12 08:57:11;;;;;;;9.93;1.40;;;9.60;99.90;;;;;;4973826;28;20050;-74
2023/01/12 08:59:37;;;;;;;12.13;2.00;;;9.70;99.90;;;;;;4973271;28;20109;-85
2023/01/12 09:02:03;;;;;;;11.88;1.60;;;9.80;99.90;;;;;;4973454;28;20066;-76
2023/01/12 09:04:29;;;;;;;13.27;3.20;;;9.80;99.90;;;;;;4972931;28;20488;-73
2023/01/12 09:06:55;;;;;;;16.83;7.88;;;9.80;99.90;;;;;;4974260;28;20062;-75
2023/01/12 09:09:21;;;;;;;12.70;1.30;;;9.90;99.90;;;;;;4975162;28;20055;-73
2023/01/12 09:11:48;;;;;;;7.57;1.70;;;9.90;99.90;;;;;;4977718;28;20042;-71
2023/01/12 09:14:14;;;;;;;8.80;2.03;;;9.90;99.90;;;;;;4976814;28;20057;-73
2023/01/12 09:16:41;;;;;;;10.75;1.33;;;9.90;99.90;;;;;;4960184;28;20481;-72
2023/01/12 09:19:07;;;;;;;8.38;1.77;;;10.00;99.90;;;;;;4978665;28;20362;-72
2023/01/12 09:21:37;;;;;;;10.07;2.38;;;10.00;99.90;;;;;;4977962;28;20485;-72
2023/01/12 09:24:03;;;;;;;8.77;1.88;;;10.00;99.90;;;;;;4960674;28;20105;-76
2023/01/12 09:26:35;;;;;;;11.02;2.38;;;10.10;99.90;;;;;;4976737;28;20057;-75
2023/01/12 09:29:03;;;;;;;10.30;1.45;;;10.00;99.90;;;;;;4977767;28;20050;-73
2023/01/12 09:31:30;;;;;;;12.00;1.88;;;10.10;99.90;;;;;;4976373;28;20482;-73
2023/01/12 09:33:57;;;;;;;6.20;1.80;;;10.10;99.90;;;;;;4977526;28;20055;-73
2023/01/12 09:36:25;;;;;;;9.93;1.98;;;10.10;99.90;;;;;;4978167;28;20141;-77
2023/01/12 09:38:50;;;;;;;11.75;4.43;;;10.10;99.90;;;;;;4977125;28;20113;-82
2023/01/12 09:47:43;;;;;;;11.13;2.03;;;10.20;99.90;;;;;;4977606;28;20519;-80
2023/01/12 09:50:39;;;;;;;10.25;1.75;;;10.20;99.90;;;;;;4971490;28;20062;-75
2023/01/12 09:53:23;;;;;;;12.63;1.25;;;10.20;99.90;;;;;;4975124;28;20117;-76
2023/01/12 09:55:56;;;;;;;;;;;10.20;99.90;;;;;;4977765;28;20081;-73
2023/01/12 09:58:55;;;;;;;6.60;1.15;;;10.30;99.90;;;;;;4977937;28;19922;-75
2023/01/12 10:01:21;;;;;;;8.60;1.33;;;10.30;99.90;;;;;;4977056;28;20047;-73
2023/01/12 10:03:47;;;;;;;7.57;1.98;;;10.40;99.90;;;;;;4976265;28;20441;-77
2023/01/12 10:06:18;;;;;;;8.35;1.55;;;10.40;99.90;;;;;;4976824;28;20039;-73
2023/01/12 10:08:48;;;;;;;5.70;1.15;;;10.40;99.90;;;;;;4976379;28;20098;-78
2023/01/12 10:11:35;;;;;;;9.70;1.00;;;10.40;99.90;;;;;;4976884;28;20511;-74
2023/01/12 10:14:31;;;;;;;8.88;1.27;;;10.40;99.90;;;;;;4959551;28;20047;-75
2023/01/12 10:17:14;;;;;;;12.32;1.52;;;10.40;99.90;;;;;;4977574;28;20074;-74
2023/01/12 10:20:06;;;;;;;9.57;1.30;;;10.40;99.90;;;;;;4976118;28;20062;-79
2023/01/12 10:22:42;;;;;;;40.20;11.80;;;10.50;99.90;;;;;;4976354;28;20445;-79
2023/01/12 10:25:13;;;;;;;6.43;1.30;;;10.50;99.90;;;;;;4975985;28;20516;-73
2023/01/12 10:27:42;;;;;;;7.93;1.45;;;10.50;99.90;;;;;;4975498;28;20077;-74
2023/01/12 10:30:14;;;;;;;7.97;1.52;;;10.50;99.90;;;;;;4977273;28;20055;-76
2023/01/12 10:32:40;;;;;;;7.13;1.17;;;10.50;99.90;;;;;;4976469;28;20054;-75
2023/01/12 10:35:16;;;;;;;8.27;0.95;;;10.50;99.90;;;;;;4976066;28;20518;-79
2023/01/12 10:37:47;;;;;;;7.97;1.08;;;10.60;99.90;;;;;;4976384;28;20053;-77
2023/01/12 10:40:26;;;;;;;9.45;1.67;;;10.70;99.90;;;;;;4976391;28;20042;-75
2023/01/12 10:43:17;;;;;;;5.35;1.10;;;10.70;99.90;;;;;;4976342;28;20090;-76
2023/01/12 10:45:53;;;;;;;10.90;1.80;;;10.70;99.90;;;;;;4976229;28;20126;-75
2023/01/12 10:48:21;;;;;;;5.78;1.67;;;10.70;99.90;;;;;;4976592;28;20043;-74
2023/01/12 10:51:01;;;;;;;5.45;1.15;;;10.70;99.90;;;;;;4976173;28;20047;-79
2023/01/12 10:53:35;;;;;;;12.30;2.45;;;10.80;99.90;;;;;;4975470;28;20075;-76
2023/01/12 10:56:19;;;;;;;6.00;0.90;;;10.80;99.90;;;;;;4976036;28;20051;-75
2023/01/12 10:58:51;;;;;;;7.75;1.15;;;10.90;99.90;;;;;;4976032;28;20043;-79
2023/01/12 11:01:17;;;;;;;5.72;1.17;;;10.90;99.90;;;;;;4975822;28;20051;-79
2023/01/12 11:03:43;;;;;;;7.53;0.90;;;10.80;99.90;;;;;;4975889;28;20065;-80
2023/01/12 11:06:21;;;;;;;7.03;0.90;;;10.80;99.90;;;;;;4974312;28;20042;-78
2023/01/12 11:08:47;;;;;;;5.63;0.95;;;10.80;99.90;;;;;;4975987;28;20081;-74
2023/01/12 11:11:22;;;;;;;11.02;1.60;;;10.80;99.90;;;;;;4974985;28;20134;-78
2023/01/12 11:13:52;;;;;;;11.05;1.17;;;10.70;99.90;;;;;;4974563;28;20097;-77
2023/01/12 11:16:39;;;;;;;8.07;1.05;;;10.70;99.90;;;;;;4976391;28;20058;-76
2023/01/12 11:19:17;;;;;;;5.80;0.90;;;10.70;99.90;;;;;;4980181;28;20047;-78
2023/01/12 11:21:56;;;;;;;11.55;1.30;;;10.80;99.90;;;;;;4979017;28;20051;-74
2023/01/12 11:24:38;;;;;;;7.85;1.85;;;10.70;99.90;;;;;;4975564;28;20047;-76
2023/01/12 11:27:20;;;;;;;7.45;0.95;;;10.70;99.90;;;;;;4974862;28;20362;-75
2023/01/12 11:30:03;;;;;;;7.63;1.00;;;10.80;99.90;;;;;;4974630;28;20432;-75
2023/01/12 11:32:28;;;;;;;7.05;1.38;;;10.80;99.90;;;;;;4974393;28;20058;-77
2023/01/12 11:35:17;;;;;;;8.07;1.17;;;10.90;99.90;;;;;;4975116;28;20385;-79
2023/01/12 11:37:44;;;;;;;6.40;1.33;;;10.90;99.90;;;;;;4974613;28;20452;-79
2023/01/12 11:40:27;;;;;;;6.53;1.05;;;11.00;99.90;;;;;;4975116;28;20058;-80
2023/01/12 11:45:51;;;;;;;7.88;1.30;;;11.00;99.90;;;;;;4975017;28;20062;-77
2023/01/12 11:48:31;;;;;;;7.63;1.20;;;11.00;99.90;;;;;;4975080;28;20051;-78
2023/01/12 12:30:19;;;;;;;7.80;2.40;;;14.10;99.90;;;;;;5021172;28;1367063;-81
2023/01/12 12:33:07;;;;;;;5.05;1.80;;;11.50;99.90;;;;;;5054126;27;20049;-79
2023/01/12 12:36:00;;;;;;;6.97;0.90;;;11.50;99.90;;;;;;5137156;27;20049;-81
2023/01/12 12:39:03;;;;;;;6.47;0.90;;;11.50;99.90;;;;;;5057255;28;20339;-83
2023/01/12 12:47:40;;;;;;;6.22;1.02;;;11.40;99.90;;;;;;5047115;27;20445;-80
2023/01/12 12:50:31;;;;;;;6.00;1.55;;;11.40;99.90;;;;;;5046821;28;20067;-82
2023/01/12 12:53:11;;;;;;;7.88;1.25;;;11.40;99.90;;;;;;5047061;28;20047;-80
2023/01/12 12:55:37;;;;;;;9.43;1.33;;;11.30;99.90;;;;;;5116547;28;20052;-82
2023/01/12 12:58:23;;;;;;;7.32;1.10;;;11.40;99.90;;;;;;5108231;28;20480;-80
2023/01/12 13:00:50;;;;;;;9.65;1.00;;;11.40;99.90;;;;;;5124368;27;20041;-82
2023/01/12 13:03:38;;;;;;;7.65;0.80;;;11.30;99.90;;;;;;5129921;27;20120;-83
2023/01/12 13:06:25;;;;;;;7.88;2.92;;;11.30;99.90;;;;;;5121361;27;20045;-80
2023/01/12 13:08:55;;;;;;;6.38;2.05;;;11.30;99.90;;;;;;5046567;28;20037;-77
2023/01/12 13:11:52;;;;;;;5.90;1.02;;;11.30;99.90;;;;;;5047432;27;20064;-77
2023/01/12 13:14:25;;;;;;;5.20;0.80;;;11.30;99.90;;;;;;5098990;28;20053;-81
2023/01/12 13:16:52;;;;;;;;;;;11.20;99.90;;;;;;5046868;28;20048;-77
2023/01/12 13:19:42;;;;;;;8.85;1.85;;;11.20;99.90;;;;;;5115287;28;20261;-80
2023/01/12 13:22:16;;;;;;;6.38;1.60;;;11.20;99.90;;;;;;5046868;28;20397;-81
2023/01/12 13:24:43;;;;;;;9.40;4.68;;;11.20;99.90;;;;;;5115442;28;20093;-76
2023/01/12 13:27:47;;;;;;;6.25;1.05;;;11.20;99.90;;;;;;5046440;28;20049;-77
2023/01/12 13:30:34;;;;;;;4.07;0.70;;;11.20;99.90;;;;;;5104350;28;20041;-75
2023/01/12 13:33:21;;;;;;;5.75;1.00;;;11.20;99.90;;;;;;5033266;28;20103;-75
2023/01/12 13:35:47;;;;;;;5.90;1.30;;;11.20;99.90;;;;;;5033056;28;20120;-74
2023/01/12 13:38:43;;;;;;;4.70;0.90;;;11.20;99.90;;;;;;5032888;28;20522;-73
2023/01/12 13:44:28;;;;;;;6.68;1.20;;;11.20;99.90;;;;;;5121593;27;20519;-73
2023/01/12 13:47:09;;;;;;;7.38;1.10;;;11.20;99.90;;;;;;5052409;28;20121;-74
2023/01/12 13:49:44;;;;;;;4.15;0.93;;;11.20;99.90;;;;;;5051303;28;20056;-74
2023/01/12 13:52:34;;;;;;;7.85;1.25;;;11.20;99.90;;;;;;5121528;27;20052;-74
2023/01/12 13:55:00;;;;;;;11.50;2.10;;;11.10;99.90;;;;;;5121527;27;20073;-73
2023/01/12 13:57:29;;;;;;;9.20;1.15;;;11.10;99.90;;;;;;5121780;27;20115;-75
2023/01/12 13:59:59;;;;;;;6.35;1.65;;;11.10;99.90;;;;;;5052156;28;20534;-77
2023/01/12 14:02:28;;;;;;;10.93;1.52;;;11.20;99.90;;;;;;5049733;28;20492;-74
2023/01/12 14:05:15;;;;;;;8.85;1.95;;;11.10;99.90;;;;;;5120928;27;20077;-73
2023/01/12 14:07:52;;;;;;;11.40;1.85;;;11.20;99.90;;;;;;5049494;28;20040;-74
2023/01/12 14:10:49;;;;;;;7.13;1.92;;;11.10;99.90;;;;;;5051871;28;20120;-75
2023/01/12 14:13:52;;;;;;;9.27;1.50;;;11.10;99.90;;;;;;5051386;28;20531;-67
2023/01/12 14:19:27;;;;;;;11.13;1.83;;;11.10;99.90;;;;;;5048831;27;20058;-71
2023/01/12 14:22:03;;;;;;;9.32;1.77;;;11.10;99.90;;;;;;5119698;27;20056;-74
2023/01/12 14:24:29;;;;;;;13.38;1.60;;;11.10;99.90;;;;;;5050377;28;20052;-73
2023/01/12 14:26:54;;;;;;;11.55;1.80;;;11.10;99.90;;;;;;5120776;27;20033;-74
2023/01/12 14:29:20;;;;;;;6.35;1.65;;;11.10;99.90;;;;;;5051330;28;20044;-73
2023/01/12 14:31:53;;;;;;;9.60;2.03;;;11.10;99.90;;;;;;5051973;28;20458;-72
2023/01/12 14:34:33;;;;;;;11.60;2.00;;;11.10;99.90;;;;;;5051282;28;20385;-73
2023/01/12 14:37:02;;;;;;;12.02;1.85;;;11.10;99.90;;;;;;5051508;28;20132;-73
2023/01/12 14:39:30;;;;;;;10.20;2.10;;;11.10;99.90;;;;;;5120395;27;20036;-74
2023/01/12 14:47:37;;;;;;;9.20;1.90;;;11.00;99.90;;;;;;5050495;28;20305;-74
2023/01/12 14:50:12;;;;;;;10.55;2.17;;;11.00;99.90;;;;;;5051370;28;20041;-74
2023/01/12 14:52:40;;;;;;;6.63;3.95;;;11.10;99.90;;;;;;5051127;27;20041;-73